Altus, OK

11:19 PM CDT on March 25, 2017 (GMT -0500)
Altus Municipal

Weather History for KAXS - January, 2013

Change the Weather History Date:

Monday, January 28, 2013

  Actual Average (KLTS) Record (KLTS)
Temperature  
Mean Temperature 62 °F -  
Max Temperature 78 °F 50 °F 84 °F (2015)
Min Temperature 46 °F 27 °F 6 °F (2009)
Degree Days  
Heating Degree Days 3    
Growing Degree Days 12 (Base 50)    
Moisture  
Dew Point 49 °F    
Average Humidity 63    
Maximum Humidity 93    
Minimum Humidity 34    
Precipitation  
Precipitation 0.00 in - - ()
Sea Level Pressure  
Sea Level Pressure 29.84 in    
Wind  
Wind Speed 11 mph (South)    
Max Wind Speed 26 mph    
Max Gust Speed 36 mph    
Visibility 10 miles    
Events      
Averages and records for this station are not official NWS values.
T = Trace of Precipitation, MM = Missing Value Source: NWS Daily Summary

Daily Weather History Graph

Daily Weather History Graph

Search for Another Location

Airport or City:

Trip Planner

Search our weather history database for the weather conditions in past years. The results will help you decide how hot, cold, wet, or windy it might be!

Date:

Astronomy

Jan. 28, 2013 Rise Set
Actual Time 7:38 AM CST 6:02 PM CST
Civil Twilight 7:11 AM CST 6:29 PM CST
Nautical Twilight 6:41 AM CST 7:00 PM CST
Astronomical Twilight 6:11 AM CST 7:29 PM CST
Moon 7:52 PM CST (1/28) 8:10 AM CST (1/28)
Length of Visible Light 11h 18m
Length of Day
10h 24m
Full, 98% of the Moon is Illuminated
Jan 28
Full
Feb 3
Last Quarter
Feb 10
New
Feb 17
First Quarter
Feb 25
Full

Hourly Weather History & Observations

Time (CST) Temp. Windchill Dew Point Humidity Pressure Visibility Wind Dir Wind Speed Gust Speed Precip Events Conditions
12:15 AM 59.0 °F - 50.0 °F 72% 29.88 in 10.0 mi South 10.4 mph - N/A   Clear
12:35 AM 57.2 °F - 50.0 °F 77% 29.88 in 10.0 mi South 10.4 mph - N/A   Clear
12:55 AM 57.2 °F - 50.0 °F 77% 29.88 in 10.0 mi South 10.4 mph - N/A   Clear
1:15 AM 55.4 °F - 48.2 °F 77% 29.89 in 10.0 mi South 8.1 mph - N/A   Clear
1:35 AM 53.6 °F - 46.4 °F 77% 29.89 in 10.0 mi South 9.2 mph - N/A   Clear
1:55 AM 53.6 °F - 46.4 °F 77% 29.90 in 10.0 mi SSW 8.1 mph - N/A   Clear
2:15 AM 51.8 °F - 44.6 °F 76% 29.90 in 10.0 mi South 9.2 mph - N/A   Clear
2:35 AM 51.8 °F - 44.6 °F 76% 29.90 in 10.0 mi South 11.5 mph - N/A   Clear
2:55 AM 53.6 °F - 44.6 °F 72% 29.90 in 10.0 mi South 9.2 mph - N/A   Clear
3:15 AM 51.8 °F - 44.6 °F 76% 29.90 in 10.0 mi SSW 6.9 mph - N/A   Clear
3:35 AM 51.8 °F - 42.8 °F 71% 29.90 in 10.0 mi South 9.2 mph - N/A   Clear
3:55 AM 51.8 °F - 42.8 °F 71% 29.90 in 10.0 mi South 6.9 mph - N/A   Clear
4:15 AM 51.8 °F - 42.8 °F 71% 29.90 in 10.0 mi SSW 6.9 mph - N/A   Clear
4:35 AM 50.0 °F - 42.8 °F 76% 29.90 in 10.0 mi South 5.8 mph - N/A   Clear
4:55 AM 50.0 °F - 42.8 °F 76% 29.91 in 10.0 mi SSE 8.1 mph - N/A   Clear
5:15 AM 50.0 °F - 42.8 °F 76% 29.91 in 10.0 mi SSW 6.9 mph - N/A   Clear
5:35 AM 50.0 °F - 44.6 °F 82% 29.91 in 10.0 mi SSW 5.8 mph - N/A   Clear
6:15 AM 48.2 °F - 42.8 °F 82% 29.91 in 10.0 mi South 3.5 mph - N/A   Clear
6:35 AM 48.2 °F - 44.6 °F 87% 29.91 in 10.0 mi Calm Calm - N/A   Clear
6:55 AM 50.0 °F - 44.6 °F 82% 29.91 in 10.0 mi SE 4.6 mph - N/A   Clear
7:15 AM 46.4 °F 43.5 °F 44.6 °F 93% 29.92 in 10.0 mi South 5.8 mph - N/A   Clear
7:35 AM 50.0 °F - 44.6 °F 82% 29.93 in 10.0 mi South 4.6 mph - N/A   Clear
7:55 AM 50.0 °F - 46.4 °F 87% 29.93 in 10.0 mi Calm Calm - N/A   Clear
8:15 AM 51.8 °F - 46.4 °F 82% 29.93 in 10.0 mi Calm Calm - N/A   Clear
8:35 AM 51.8 °F - 46.4 °F 82% 29.93 in 10.0 mi South 3.5 mph - N/A   Clear
8:55 AM 53.6 °F - 48.2 °F 82% 29.93 in 10.0 mi Calm Calm - N/A   Clear
9:15 AM 53.6 °F - 50.0 °F 88% 29.92 in 10.0 mi Calm Calm - N/A   Clear
9:35 AM 55.4 °F - 50.0 °F 82% 29.92 in 10.0 mi SSE 3.5 mph - N/A   Clear
9:55 AM 59.0 °F - 51.8 °F 77% 29.91 in 10.0 mi South 3.5 mph - N/A   Clear
10:35 AM 69.8 °F - 59.0 °F 68% 29.90 in 10.0 mi South 20.7 mph - N/A   Clear
10:55 AM 69.8 °F - 59.0 °F 68% 29.90 in 10.0 mi South 24.2 mph 29.9 mph N/A   Clear
11:15 AM 71.6 °F - 59.0 °F 64% 29.89 in 10.0 mi South 26.5 mph 35.7 mph N/A   Clear
11:35 AM 71.6 °F - 59.0 °F 64% 29.88 in 10.0 mi South 23.0 mph - N/A   Scattered Clouds
11:55 AM 71.6 °F - 59.0 °F 64% 29.88 in 10.0 mi South 23.0 mph - N/A   Scattered Clouds
12:15 PM 69.8 °F - 59.0 °F 68% 29.87 in 10.0 mi South 21.9 mph 26.5 mph N/A   Mostly Cloudy
12:35 PM 71.6 °F - 59.0 °F 64% 29.86 in 10.0 mi South 18.4 mph 26.5 mph N/A   Scattered Clouds
12:55 PM 71.6 °F - 59.0 °F 64% 29.85 in 10.0 mi South 23.0 mph - N/A   Scattered Clouds
1:15 PM 71.6 °F - 59.0 °F 64% 29.83 in 10.0 mi SSW 20.7 mph 26.5 mph N/A   Scattered Clouds
1:35 PM 73.4 °F - 57.2 °F 57% 29.81 in 10.0 mi SSW 21.9 mph - N/A   Mostly Cloudy
1:55 PM 75.2 °F - 55.4 °F 50% 29.79 in 10.0 mi SSW 20.7 mph 31.1 mph N/A   Scattered Clouds
2:15 PM 77.0 °F - 55.4 °F 47% 29.78 in 10.0 mi SSW 23.0 mph 29.9 mph N/A   Scattered Clouds
2:35 PM 77.0 °F - 55.4 °F 47% 29.77 in 10.0 mi SSW 21.9 mph 27.6 mph N/A   Clear
2:55 PM 77.0 °F - 53.6 °F 44% 29.76 in 10.0 mi SSW 23.0 mph 27.6 mph N/A   Clear
3:15 PM 77.0 °F - 53.6 °F 44% 29.76 in 10.0 mi SSW 19.6 mph 28.8 mph N/A   Clear
3:35 PM 78.8 °F - 51.8 °F 39% 29.75 in 10.0 mi SSW 20.7 mph 25.3 mph N/A   Clear
3:55 PM 78.8 °F - 50.0 °F 36% 29.75 in 10.0 mi SSW 20.7 mph 26.5 mph N/A   Clear
4:15 PM 78.8 °F - 50.0 °F 36% 29.74 in 10.0 mi SSW 24.2 mph 32.2 mph N/A   Clear
4:35 PM 78.8 °F - 50.0 °F 36% 29.74 in 10.0 mi SSW 18.4 mph 25.3 mph N/A   Clear
4:55 PM 78.8 °F - 50.0 °F 36% 29.74 in 10.0 mi SSW 17.3 mph 24.2 mph N/A   Clear
5:15 PM 77.0 °F - 46.4 °F 34% 29.73 in 10.0 mi SSW 16.1 mph 20.7 mph N/A   Clear
5:35 PM 75.2 °F - 46.4 °F 36% 29.72 in 10.0 mi South 18.4 mph 21.9 mph N/A   Clear
5:55 PM 73.4 °F - 46.4 °F 38% 29.73 in 10.0 mi SSW 12.7 mph - N/A   Clear
6:15 PM 71.6 °F - 46.4 °F 41% 29.72 in 10.0 mi South 10.4 mph - N/A   Clear
6:35 PM 71.6 °F - 46.4 °F 41% 29.73 in 10.0 mi South 11.5 mph - N/A   Clear
6:55 PM 69.8 °F - 46.4 °F 43% 29.73 in 10.0 mi South 9.2 mph - N/A   Clear
7:15 PM 69.8 °F - 46.4 °F 43% 29.75 in 10.0 mi South 11.5 mph - N/A   Clear
7:55 PM 68.0 °F - 44.6 °F 43% 29.75 in 10.0 mi South 12.7 mph - N/A   Clear
8:15 PM 66.2 °F - 46.4 °F 49% 29.75 in 10.0 mi SSW 11.5 mph - N/A   Clear
9:15 PM 64.4 °F - 46.4 °F 52% 29.75 in 10.0 mi South 11.5 mph - N/A   Clear
9:55 PM 68.0 °F - 46.4 °F 46% 29.74 in 10.0 mi South 12.7 mph - N/A   Clear
10:15 PM 68.0 °F - 48.2 °F 49% 29.74 in 10.0 mi South 17.3 mph - N/A   Clear
10:35 PM 68.0 °F - 50.0 °F 52% 29.74 in 10.0 mi South 17.3 mph - N/A   Clear
10:55 PM 66.2 °F - 50.0 °F 56% 29.74 in 10.0 mi South 11.5 mph - N/A   Clear
11:15 PM 64.4 °F - 50.0 °F 59% 29.74 in 10.0 mi SSW 6.9 mph - N/A   Clear
11:55 PM 60.8 °F - 50.0 °F 68% 29.74 in 10.0 mi SW 4.6 mph - N/A   Clear